createdAt,value
2019-02-22T00:01:25.179Z,29.17
2019-02-22T00:03:59.245Z,26.83
2019-02-22T00:06:33.250Z,22.57
2019-02-22T00:09:07.619Z,29.47
2019-02-22T00:11:43.375Z,26.43
2019-02-22T00:14:16.781Z,35.87
2019-02-22T00:16:50.714Z,32.43
2019-02-22T00:19:24.484Z,30.77
2019-02-22T00:21:58.523Z,28.00
2019-02-22T00:24:32.566Z,27.27
2019-02-22T00:27:06.598Z,26.00
2019-02-22T00:29:40.152Z,32.40
2019-02-22T00:32:14.184Z,37.07
2019-02-22T00:34:47.651Z,28.40
2019-02-22T00:37:25.886Z,25.47
2019-02-22T00:39:59.485Z,25.27
2019-02-22T00:42:33.474Z,27.07
2019-02-22T00:45:06.902Z,24.80
2019-02-22T00:47:41.023Z,20.60
2019-02-22T00:50:14.715Z,26.67
2019-02-22T00:52:49.248Z,25.23
2019-02-22T00:55:23.717Z,31.33
2019-02-22T00:57:58.455Z,33.77
2019-02-22T01:00:33.535Z,35.37
2019-02-22T01:03:07.511Z,27.03
2019-02-22T01:05:43.332Z,26.33
2019-02-22T01:08:17.480Z,27.90
2019-02-22T01:10:53.194Z,25.53
2019-02-22T01:13:27.620Z,27.97
2019-02-22T01:16:01.122Z,26.93
2019-02-22T01:18:35.014Z,27.13
2019-02-22T01:21:08.436Z,29.30
2019-02-22T01:23:42.446Z,26.07
2019-02-22T01:26:17.013Z,18.27
2019-02-22T01:28:51.099Z,21.63
2019-02-22T01:31:26.854Z,22.90
2019-02-22T01:34:00.775Z,21.17
2019-02-22T01:36:36.793Z,21.40
2019-02-22T01:39:10.535Z,22.53
2019-02-22T01:41:46.289Z,24.90
2019-02-22T01:44:22.913Z,23.13
2019-02-22T01:46:56.489Z,23.57
2019-02-22T01:49:31.545Z,21.30
2019-02-22T01:52:04.938Z,23.43
2019-02-22T01:54:38.978Z,21.13
2019-02-22T01:57:12.554Z,23.77
2019-02-22T01:59:46.122Z,22.90
2019-02-22T02:02:19.609Z,21.50
2019-02-22T02:04:54.208Z,20.27
2019-02-22T02:07:27.711Z,19.50
2019-02-22T02:10:02.364Z,21.17
2019-02-22T02:12:35.946Z,26.03
2019-02-22T02:15:11.479Z,20.00
2019-02-22T02:17:45.119Z,27.03
2019-02-22T02:20:19.351Z,27.27
2019-02-22T02:22:53.053Z,26.33
2019-02-22T02:25:27.180Z,18.27
2019-02-22T02:28:00.714Z,19.07
2019-02-22T02:30:34.560Z,25.60
2019-02-22T02:33:10.187Z,20.20
2019-02-22T02:35:44.063Z,15.10
2019-02-22T02:38:17.605Z,21.50
2019-02-22T02:40:52.265Z,18.57
2019-02-22T02:43:25.862Z,19.23
2019-02-22T02:45:59.830Z,16.47
2019-02-22T02:48:35.716Z,17.20
2019-02-22T02:51:09.546Z,18.60
2019-02-22T02:53:43.082Z,17.10
2019-02-22T02:56:16.884Z,16.83
2019-02-22T02:58:50.748Z,16.77
2019-02-22T03:01:24.529Z,18.10
2019-02-22T03:03:58.085Z,14.20
2019-02-22T03:06:47.259Z,16.63
2019-02-22T03:09:20.864Z,13.03
2019-02-22T03:11:54.928Z,14.73
2019-02-22T03:14:28.456Z,13.43
2019-02-22T03:17:03.212Z,11.17
2019-02-22T03:19:36.887Z,13.83
2019-02-22T03:22:10.786Z,13.93
2019-02-22T03:24:47.222Z,13.80
2019-02-22T03:27:21.239Z,15.80
2019-02-22T03:29:55.633Z,18.90
2019-02-22T03:32:29.548Z,18.83
2019-02-22T03:35:03.138Z,18.70
2019-02-22T03:37:36.796Z,15.93
2019-02-22T03:40:10.505Z,16.07
2019-02-22T03:42:44.599Z,15.77
2019-02-22T03:45:20.455Z,15.10
2019-02-22T03:47:54.470Z,18.27
2019-02-22T03:50:28.058Z,14.77
2019-02-22T03:53:16.763Z,18.57
2019-02-22T03:55:50.460Z,16.20
2019-02-22T03:58:24.953Z,21.43
2019-02-22T04:01:00.676Z,29.53
2019-02-22T04:03:35.847Z,19.23
2019-02-22T04:06:12.237Z,22.07
2019-02-22T04:08:46.269Z,47.53
2019-02-22T04:11:19.932Z,36.30
2019-02-22T04:13:53.906Z,41.63
2019-02-22T04:16:27.402Z,26.40
2019-02-22T04:19:02.262Z,28.53
2019-02-22T04:21:36.513Z,20.17
2019-02-22T04:24:10.439Z,18.90
2019-02-22T04:26:44.145Z,38.90
2019-02-22T04:29:18.165Z,21.33
2019-02-22T04:31:52.244Z,18.00
2019-02-22T04:34:26.187Z,16.57
2019-02-22T04:37:01.909Z,19.93
2019-02-22T04:39:36.448Z,24.17
2019-02-22T04:42:11.265Z,30.90
2019-02-22T04:44:45.345Z,21.90
2019-02-22T04:47:18.875Z,17.73
2019-02-22T04:49:52.987Z,26.93
2019-02-22T04:52:26.640Z,25.60
2019-02-22T04:55:00.685Z,17.63
2019-02-22T04:57:34.213Z,29.97
2019-02-22T05:00:08.825Z,25.37
2019-02-22T05:02:44.747Z,21.57
2019-02-22T05:05:18.756Z,23.37
2019-02-22T05:07:52.923Z,25.50
2019-02-22T05:10:26.535Z,23.37
2019-02-22T05:13:00.078Z,25.47
2019-02-22T05:15:33.728Z,23.83
2019-02-22T05:18:07.322Z,19.77
2019-02-22T05:20:42.041Z,29.93
2019-02-22T05:23:15.526Z,39.60
2019-02-22T05:25:49.454Z,56.80
2019-02-22T05:28:23.030Z,41.63
2019-02-22T05:30:57.210Z,22.23
2019-02-22T05:33:30.788Z,28.47
2019-02-22T05:36:05.130Z,48.10
2019-02-22T05:38:38.644Z,37.27
2019-02-22T05:41:12.917Z,47.83
2019-02-22T05:43:46.392Z,38.57
2019-02-22T05:46:20.811Z,40.53
2019-02-22T05:48:57.847Z,49.50
2019-02-22T05:51:32.144Z,53.23
2019-02-22T05:54:08.421Z,35.00
2019-02-22T05:56:42.254Z,30.40
2019-02-22T05:59:15.873Z,32.73
2019-02-22T06:01:50.184Z,30.57
2019-02-22T06:04:23.938Z,23.73
2019-02-22T06:06:59.348Z,27.63
2019-02-22T06:09:35.834Z,23.97
2019-02-22T06:12:10.005Z,41.07
2019-02-22T06:14:44.250Z,33.07
2019-02-22T06:17:18.196Z,40.80
2019-02-22T06:19:51.751Z,41.90
2019-02-22T06:22:29.905Z,30.67
2019-02-22T06:25:03.137Z,32.33
2019-02-22T06:27:38.153Z,28.03
2019-02-22T06:30:12.022Z,43.93
2019-02-22T06:32:46.189Z,33.27
2019-02-22T06:35:19.950Z,38.43
2019-02-22T06:37:54.794Z,38.13
2019-02-22T06:40:29.272Z,48.23
2019-02-22T06:43:03.244Z,43.40
2019-02-22T06:45:37.799Z,37.50
2019-02-22T06:48:12.199Z,55.17
2019-02-22T06:50:45.932Z,34.57
2019-02-22T06:53:19.940Z,43.73
2019-02-22T06:55:54.974Z,36.83
2019-02-22T06:58:29.584Z,35.73
2019-02-22T07:01:05.710Z,42.07
2019-02-22T07:03:40.566Z,40.17
2019-02-22T07:06:14.477Z,41.50
2019-02-22T07:08:49.422Z,36.23
2019-02-22T07:11:48.108Z,49.67
2019-02-22T07:14:22.348Z,37.70
2019-02-22T07:16:56.769Z,37.37
2019-02-22T07:19:32.017Z,46.63
2019-02-22T07:22:06.691Z,38.03
2019-02-22T07:24:42.500Z,49.97
2019-02-22T07:27:17.192Z,41.80
2019-02-22T07:29:51.170Z,43.87
2019-02-22T07:32:25.089Z,37.80
2019-02-22T07:35:01.709Z,53.67
2019-02-22T07:37:47.272Z,57.67
2019-02-22T07:40:22.327Z,42.97
2019-02-22T07:43:07.531Z,44.03
2019-02-22T07:45:32.588Z,54.30
2019-02-22T07:48:07.056Z,46.27
2019-02-22T07:50:41.619Z,48.40
2019-02-22T07:53:15.828Z,44.30
2019-02-22T07:55:50.154Z,37.87
2019-02-22T07:58:23.733Z,40.50
2019-02-22T08:00:58.071Z,32.80
2019-02-22T08:03:34.266Z,30.20
2019-02-22T08:06:10.034Z,46.50
2019-02-22T08:08:44.513Z,53.73
2019-02-22T08:11:19.826Z,40.80
2019-02-22T08:13:56.117Z,43.00
2019-02-22T08:16:31.364Z,82.67
2019-02-22T08:19:07.174Z,31.57
2019-02-22T08:21:41.771Z,43.13
2019-02-22T08:24:16.393Z,38.33
2019-02-22T08:26:51.905Z,40.33
2019-02-22T08:29:26.842Z,29.63
2019-02-22T08:32:02.046Z,34.47
2019-02-22T08:34:38.747Z,59.53
2019-02-22T08:37:13.872Z,43.60
2019-02-22T08:39:58.190Z,38.70
2019-02-22T08:42:27.810Z,36.00
2019-02-22T08:45:02.570Z,57.03
2019-02-22T08:47:39.337Z,30.77
2019-02-22T08:50:14.539Z,28.67
2019-02-22T08:52:48.725Z,25.30
2019-02-22T08:55:22.579Z,37.67
2019-02-22T08:57:57.380Z,49.80
2019-02-22T09:00:31.719Z,36.47
2019-02-22T09:03:07.520Z,42.87
2019-02-22T09:05:43.703Z,49.87
2019-02-22T09:08:18.438Z,45.00
2019-02-22T09:11:00.055Z,34.50
2019-02-22T09:13:28.805Z,42.90
2019-02-22T09:16:06.256Z,33.80
2019-02-22T09:18:41.003Z,45.70
2019-02-22T09:21:14.308Z,48.53
2019-02-22T09:23:48.609Z,36.53
2019-02-22T09:26:23.706Z,35.40
2019-02-22T09:28:58.838Z,41.60
2019-02-22T09:31:34.857Z,37.23
2019-02-22T09:34:09.080Z,45.33
2019-02-22T09:36:43.334Z,54.00
2019-02-22T09:39:19.465Z,49.00
2019-02-22T09:41:53.831Z,57.77
2019-02-22T09:44:29.974Z,44.80
2019-02-22T09:47:04.392Z,48.10
2019-02-22T09:49:38.728Z,54.60
2019-02-22T09:52:13.035Z,52.57
2019-02-22T09:54:47.586Z,58.10
2019-02-22T09:57:22.964Z,48.33
2019-02-22T09:59:58.250Z,54.33
2019-02-22T10:02:34.336Z,58.30
2019-02-22T10:05:16.406Z,64.70
2019-02-22T10:07:52.196Z,67.23
2019-02-22T10:10:27.655Z,55.43
2019-02-22T10:13:03.692Z,80.27
2019-02-22T10:15:39.996Z,72.67
2019-02-22T10:18:15.992Z,69.70
2019-02-22T10:20:50.679Z,65.47
2019-02-22T10:23:25.830Z,57.10
2019-02-22T10:26:02.370Z,59.27
2019-02-22T10:28:39.711Z,67.30
2019-02-22T10:31:20.736Z,58.53
2019-02-22T10:33:55.528Z,58.40
2019-02-22T10:36:31.165Z,50.60
2019-02-22T10:39:07.655Z,57.93
2019-02-22T10:41:45.706Z,54.97
2019-02-22T10:44:20.957Z,51.97
2019-02-22T10:46:57.618Z,52.43
2019-02-22T10:49:33.022Z,47.70
2019-02-22T10:52:07.620Z,51.57
2019-02-22T10:54:44.533Z,45.10
2019-02-22T10:57:19.548Z,45.10
2019-02-22T10:59:56.807Z,51.77
2019-02-22T11:02:32.109Z,53.43
2019-02-22T11:05:06.643Z,51.07
2019-02-22T11:07:44.005Z,50.33
2019-02-22T11:10:19.022Z,73.80
2019-02-22T11:12:54.090Z,66.23
2019-02-22T11:15:27.159Z,54.30
2019-02-22T11:18:03.755Z,58.27
2019-02-22T11:20:39.510Z,61.33
2019-02-22T11:23:14.424Z,62.17
2019-02-22T11:25:49.532Z,59.47
2019-02-22T11:28:24.571Z,47.47
2019-02-22T11:30:58.574Z,41.10
2019-02-22T11:33:35.368Z,39.83
2019-02-22T11:36:09.608Z,38.00
2019-02-22T11:38:44.573Z,32.77
2019-02-22T11:41:23.145Z,31.97
2019-02-22T11:43:58.154Z,37.67
2019-02-22T11:46:34.146Z,32.40
2019-02-22T11:49:10.218Z,35.20
2019-02-22T11:51:44.925Z,42.90
2019-02-22T11:54:20.934Z,39.77
2019-02-22T11:56:55.805Z,42.83
2019-02-22T11:59:31.050Z,41.97
2019-02-22T12:02:08.112Z,42.93
2019-02-22T12:04:42.970Z,42.43
2019-02-22T12:07:17.558Z,38.47
2019-02-22T12:09:54.649Z,43.63
2019-02-22T12:12:30.580Z,33.77
2019-02-22T12:15:05.316Z,38.43
2019-02-22T12:17:46.264Z,36.97
2019-02-22T12:20:24.188Z,32.17
2019-02-22T12:22:58.586Z,30.67
2019-02-22T12:25:34.131Z,25.97
2019-02-22T12:28:12.205Z,31.73
2019-02-22T12:30:48.258Z,41.30
2019-02-22T12:33:23.509Z,36.70
2019-02-22T12:36:00.636Z,39.67
2019-02-22T12:38:36.375Z,36.87
2019-02-22T12:41:11.682Z,20.20
2019-02-22T12:43:47.045Z,20.03
2019-02-22T12:46:25.471Z,21.37
2019-02-22T12:49:01.275Z,18.53
2019-02-22T12:51:46.691Z,25.10
2019-02-22T12:54:23.835Z,31.70
2019-02-22T12:56:58.696Z,30.13
2019-02-22T12:59:37.187Z,35.53
2019-02-22T13:02:12.344Z,28.30
2019-02-22T13:04:52.546Z,28.30
2019-02-22T13:07:27.662Z,26.83
2019-02-22T13:10:05.598Z,22.77
2019-02-22T13:12:40.266Z,26.37
2019-02-22T13:15:15.278Z,22.00
2019-02-22T13:17:50.311Z,22.03
2019-02-22T13:20:25.455Z,17.40
2019-02-22T13:23:00.728Z,26.47
2019-02-22T13:25:36.580Z,27.90
2019-02-22T13:28:10.886Z,25.20
2019-02-22T13:30:47.040Z,23.17
2019-02-22T13:33:24.559Z,29.57
2019-02-22T13:35:59.086Z,19.93
2019-02-22T13:38:34.731Z,32.77
2019-02-22T13:41:13.346Z,18.27
2019-02-22T13:43:47.963Z,16.77
2019-02-22T13:46:23.281Z,18.40
2019-02-22T13:48:58.210Z,22.57
2019-02-22T13:51:34.092Z,18.43
2019-02-22T13:54:13.479Z,30.77
2019-02-22T13:56:50.956Z,19.37
2019-02-22T13:59:28.193Z,16.20
2019-02-22T14:02:01.573Z,19.83
2019-02-22T14:04:35.926Z,12.07
2019-02-22T14:07:10.613Z,12.57
2019-02-22T14:09:50.446Z,13.40
2019-02-22T14:12:25.175Z,19.17
2019-02-22T14:15:00.036Z,14.80
2019-02-22T14:17:34.926Z,45.53
2019-02-22T14:20:09.594Z,20.10
2019-02-22T14:22:45.589Z,15.67
2019-02-22T14:25:20.785Z,6.10
2019-02-22T14:27:55.144Z,6.90
2019-02-22T14:30:29.907Z,8.80
2019-02-22T14:33:04.492Z,11.23
2019-02-22T14:35:39.262Z,7.73
2019-02-22T14:38:16.794Z,8.53
2019-02-22T14:40:51.052Z,13.90
2019-02-22T14:43:25.230Z,8.47
2019-02-22T14:45:59.412Z,9.30
2019-02-22T14:48:35.230Z,9.63
2019-02-22T14:51:09.944Z,10.67
2019-02-22T14:53:44.308Z,9.90
2019-02-22T14:56:21.451Z,15.53
2019-02-22T14:58:56.862Z,8.97
2019-02-22T15:01:31.160Z,8.17
2019-02-22T15:04:06.098Z,12.10
2019-02-22T15:06:40.438Z,14.37
2019-02-22T15:09:16.052Z,12.77
2019-02-22T15:11:52.071Z,13.53
2019-02-22T15:14:28.269Z,9.90
2019-02-22T15:17:23.076Z,12.60
2019-02-22T15:19:58.510Z,16.07
2019-02-22T15:22:33.369Z,12.30
2019-02-22T15:25:08.474Z,13.27
2019-02-22T15:27:42.860Z,13.77
2019-02-22T15:30:17.650Z,17.17
2019-02-22T15:32:52.728Z,15.60
2019-02-22T15:35:26.811Z,16.33
2019-02-22T15:38:01.800Z,22.47
2019-02-22T15:40:35.909Z,15.97
2019-02-22T15:43:11.750Z,15.77
2019-02-22T15:45:47.486Z,21.70
2019-02-22T15:48:21.508Z,22.23
2019-02-22T15:50:54.808Z,18.33
2019-02-22T15:53:32.391Z,17.87
2019-02-22T15:56:09.427Z,24.37
2019-02-22T15:58:43.858Z,20.87
2019-02-22T16:01:17.485Z,17.40
2019-02-22T16:04:20.229Z,13.87
2019-02-22T16:06:56.814Z,16.93
2019-02-22T16:09:31.142Z,16.03
2019-02-22T16:12:05.668Z,16.67
2019-02-22T16:14:40.252Z,16.60
2019-02-22T16:17:16.269Z,19.23
2019-02-22T16:19:51.618Z,15.93
2019-02-22T16:22:25.858Z,13.53
2019-02-22T16:25:02.583Z,18.67
2019-02-22T16:27:37.127Z,20.87
2019-02-22T16:30:13.582Z,22.07
2019-02-22T16:32:48.641Z,21.17
2019-02-22T16:35:22.690Z,26.50
2019-02-22T16:37:57.710Z,20.53
2019-02-22T16:40:32.884Z,26.03
2019-02-22T16:43:07.486Z,30.73
2019-02-22T16:45:42.744Z,30.20
2019-02-22T16:48:18.380Z,36.20
2019-02-22T16:50:53.578Z,25.67
2019-02-22T16:53:28.149Z,39.23
2019-02-22T16:56:03.136Z,40.10
2019-02-22T16:58:45.143Z,35.00
2019-02-22T17:01:21.214Z,36.87
2019-02-22T17:03:55.431Z,25.17
2019-02-22T17:06:30.646Z,26.27
2019-02-22T17:09:07.798Z,34.03
2019-02-22T17:11:42.624Z,42.83
2019-02-22T17:14:17.912Z,36.03
2019-02-22T17:17:08.723Z,29.20
2019-02-22T17:19:43.304Z,27.47
2019-02-22T17:22:19.228Z,38.43
2019-02-22T17:24:53.676Z,40.13
2019-02-22T17:27:29.921Z,32.80
2019-02-22T17:30:04.643Z,48.27
2019-02-22T17:32:39.437Z,32.20
2019-02-22T17:35:14.871Z,30.70
2019-02-22T17:37:49.908Z,30.30
2019-02-22T17:40:24.142Z,29.33
2019-02-22T17:42:59.042Z,30.97
2019-02-22T17:45:38.696Z,33.60
2019-02-22T17:48:14.651Z,31.20
2019-02-22T17:50:48.822Z,53.43
2019-02-22T17:53:31.284Z,44.40
2019-02-22T17:56:06.256Z,50.30
2019-02-22T17:58:45.522Z,58.77
2019-02-22T18:01:20.439Z,49.10
2019-02-22T18:03:55.588Z,47.27
2019-02-22T18:06:31.856Z,47.10
2019-02-22T18:09:06.595Z,49.63
2019-02-22T18:11:41.965Z,56.70
2019-02-22T18:14:17.276Z,41.07
2019-02-22T18:16:52.590Z,47.17
2019-02-22T18:19:28.751Z,31.13
2019-02-22T18:22:07.183Z,51.07
2019-02-22T18:24:42.309Z,46.37
2019-02-22T18:27:17.121Z,47.33
2019-02-22T18:29:51.595Z,62.20
2019-02-22T18:32:25.842Z,52.07
2019-02-22T18:35:00.442Z,60.77
2019-02-22T18:37:36.854Z,53.63
2019-02-22T18:40:13.600Z,48.17
2019-02-22T18:42:48.216Z,61.77
2019-02-22T18:45:22.664Z,50.77
2019-02-22T18:47:57.400Z,60.40
2019-02-22T18:50:33.223Z,57.43
2019-02-22T18:53:08.296Z,57.87
2019-02-22T18:55:50.191Z,55.43
2019-02-22T18:58:21.160Z,62.43
2019-02-22T19:00:57.297Z,69.23
2019-02-22T19:03:34.090Z,62.27
2019-02-22T19:06:11.987Z,77.27
2019-02-22T19:08:46.812Z,66.30
2019-02-22T19:11:22.015Z,86.90
2019-02-22T19:13:56.480Z,72.30
2019-02-22T19:16:30.998Z,72.07
2019-02-22T19:19:05.721Z,71.43
2019-02-22T19:21:41.770Z,74.80
2019-02-22T19:24:15.612Z,64.00
2019-02-22T19:26:50.310Z,64.97
2019-02-22T19:29:25.387Z,66.50
2019-02-22T19:32:00.694Z,58.20
2019-02-22T19:34:34.719Z,60.60
2019-02-22T19:37:11.124Z,55.53
2019-02-22T19:39:45.799Z,47.23
2019-02-22T19:42:20.868Z,44.83
2019-02-22T19:44:56.262Z,50.00
2019-02-22T19:47:41.186Z,66.90
2019-02-22T19:50:10.718Z,50.53
2019-02-22T19:52:45.710Z,40.47
2019-02-22T19:55:19.642Z,62.87
2019-02-22T19:57:54.504Z,47.37
2019-02-22T20:00:34.994Z,42.00
2019-02-22T20:03:10.085Z,49.30
2019-02-22T20:05:44.232Z,45.13
2019-02-22T20:08:18.564Z,45.60
2019-02-22T20:10:52.434Z,49.87
2019-02-22T20:13:27.191Z,51.37
2019-02-22T20:16:01.451Z,43.70
2019-02-22T20:18:36.573Z,48.83
2019-02-22T20:21:10.471Z,59.10
2019-02-22T20:23:48.010Z,40.17
2019-02-22T20:26:21.832Z,41.60
2019-02-22T20:28:57.006Z,53.53
2019-02-22T20:31:31.217Z,51.77
2019-02-22T20:34:05.210Z,41.80
2019-02-22T20:36:39.711Z,52.30
2019-02-22T20:39:18.891Z,47.00
2019-02-22T20:41:55.702Z,48.20
2019-02-22T20:44:30.260Z,53.97
2019-02-22T20:47:03.450Z,47.83
2019-02-22T20:49:39.924Z,75.73
2019-02-22T20:52:13.648Z,40.37
2019-02-22T20:54:49.320Z,55.17
2019-02-22T20:57:23.278Z,45.90
2019-02-22T20:59:58.583Z,51.13
2019-02-22T21:02:33.226Z,47.60
2019-02-22T21:05:09.592Z,47.07
2019-02-22T21:07:43.870Z,45.17
2019-02-22T21:10:18.888Z,48.13
2019-02-22T21:12:53.818Z,54.53
2019-02-22T21:15:29.989Z,57.43
2019-02-22T21:18:15.888Z,69.80
2019-02-22T21:20:42.882Z,55.43
2019-02-22T21:23:18.214Z,50.50
2019-02-22T21:25:53.052Z,46.23
2019-02-22T21:28:27.104Z,49.77
2019-02-22T21:31:01.715Z,53.70
2019-02-22T21:33:36.275Z,45.30
2019-02-22T21:36:10.864Z,43.07
2019-02-22T21:38:44.656Z,57.57
2019-02-22T21:41:22.250Z,53.97
2019-02-22T21:43:55.944Z,49.93
2019-02-22T21:46:30.236Z,53.83
2019-02-22T21:49:04.010Z,66.00
2019-02-22T21:51:38.547Z,64.37
2019-02-22T21:54:12.579Z,61.17
2019-02-22T21:56:47.468Z,57.93
2019-02-22T21:59:21.370Z,67.60
2019-02-22T22:01:56.253Z,44.67
2019-02-22T22:04:30.141Z,60.40
2019-02-22T22:07:06.005Z,53.40
2019-02-22T22:09:39.824Z,53.67
2019-02-22T22:12:14.569Z,47.53
2019-02-22T22:14:48.245Z,49.60
2019-02-22T22:17:23.114Z,42.00
2019-02-22T22:19:57.846Z,40.27
2019-02-22T22:22:31.853Z,44.30
2019-02-22T22:25:05.874Z,44.67
2019-02-22T22:27:40.240Z,47.33
2019-02-22T22:30:16.257Z,46.30
2019-02-22T22:32:52.548Z,44.57
2019-02-22T22:35:25.716Z,41.03
2019-02-22T22:38:00.152Z,42.13
2019-02-22T22:40:33.913Z,39.67
2019-02-22T22:43:08.063Z,36.40
2019-02-22T22:45:44.214Z,40.23
2019-02-22T22:48:18.330Z,37.93
2019-02-22T22:50:54.400Z,39.63
2019-02-22T22:53:28.625Z,45.50
2019-02-22T22:56:03.557Z,45.53
2019-02-22T22:58:38.569Z,45.23
2019-02-22T23:01:28.445Z,40.50
2019-02-22T23:04:02.700Z,43.30
2019-02-22T23:06:36.586Z,39.77
2019-02-22T23:09:22.432Z,40.53
2019-02-22T23:11:56.228Z,43.97
2019-02-22T23:14:31.747Z,41.33
2019-02-22T23:17:05.754Z,41.27
2019-02-22T23:19:40.427Z,38.60
2019-02-22T23:22:14.342Z,40.63
2019-02-22T23:24:48.662Z,44.47
2019-02-22T23:27:23.165Z,40.33
2019-02-22T23:29:58.162Z,53.73
2019-02-22T23:32:33.327Z,46.80
2019-02-22T23:35:08.233Z,40.80
2019-02-22T23:37:42.289Z,45.83
2019-02-22T23:40:17.564Z,40.47
2019-02-22T23:42:53.946Z,49.80
2019-02-22T23:45:28.339Z,47.17
2019-02-22T23:48:04.501Z,39.67
2019-02-22T23:50:38.794Z,46.87
2019-02-22T23:53:12.853Z,37.67
2019-02-22T23:55:47.452Z,41.73
2019-02-22T23:58:21.195Z,38.20
